Time;durP1;ratioP1;P1;durP2;ratioP2;P2;SDS_P1;SDS_P2;PMS_P1;PMS_P2;Temp;Humidity;BMP_temperature;BMP_pressure;BME280_temperature;BME280_humidity;BME280_pressure;Samples;Min_cycle;Max_cycle;Signal;HPM_P1;HPM_P2
2021/06/21 00:01:55;;;;;;;;;5.25;5.25;;;;;22.20;65.42;100115.53;5061118;28;48559;-63
2021/06/21 00:04:20;;;;;;;;;8.25;7.25;;;;;22.25;65.55;100108.81;5072335;28;50585;-64
2021/06/21 00:06:46;;;;;;;;;6.00;6.00;;;;;22.23;66.18;100099.94;5076909;27;45282;-63
2021/06/21 00:09:11;;;;;;;;;7.25;6.75;;;;;22.23;66.05;100108.09;5060387;28;62430;-63
2021/06/21 00:11:37;;;;;;;;;5.25;5.25;;;;;22.23;65.58;100102.66;5061126;28;45394;-63
2021/06/21 00:14:02;;;;;;;;;6.00;6.00;;;;;22.25;65.86;100108.81;5061414;28;45628;-63
2021/06/21 00:16:27;;;;;;;;;8.50;6.75;;;;;22.29;66.25;100113.03;5060547;28;55047;-64
2021/06/21 00:18:53;;;;;;;;;8.00;5.00;;;;;22.28;65.81;100109.44;5072187;28;46104;-63
2021/06/21 00:21:19;;;;;;;;;5.00;5.00;;;;;22.32;65.73;100116.31;5074204;28;67986;-64
2021/06/21 00:23:44;;;;;;;;;5.00;5.00;;;;;22.33;66.27;100109.84;5072895;28;45286;-64
2021/06/21 00:26:09;;;;;;;;;5.00;4.00;;;;;22.33;65.84;100106.28;5064137;27;61518;-64
2021/06/21 00:28:35;;;;;;;;;4.00;4.00;;;;;22.26;65.77;100094.25;5081482;27;47064;-63
2021/06/21 00:31:00;;;;;;;;;3.25;3.25;;;;;22.32;65.65;100110.88;5064555;27;56683;-64
2021/06/21 00:33:25;;;;;;;;;3.25;3.25;;;;;22.33;65.47;100111.72;5061062;28;45395;-63
2021/06/21 00:35:51;;;;;;;;;5.00;4.00;;;;;22.33;65.97;100128.03;5059975;28;66431;-63
2021/06/21 00:38:16;;;;;;;;;4.00;4.00;;;;;22.32;65.80;100123.59;5059768;28;65331;-63
2021/06/21 00:40:42;;;;;;;;;4.75;4.75;;;;;22.32;65.66;100115.44;5060035;28;62459;-63
2021/06/21 00:43:07;;;;;;;;;3.00;3.00;;;;;22.30;65.88;100112.88;5060146;28;67234;-63
2021/06/21 00:45:32;;;;;;;;;5.00;4.00;;;;;22.31;65.68;100120.03;5060587;28;45695;-63
2021/06/21 00:47:58;;;;;;;;;4.00;4.00;;;;;22.32;66.00;100121.75;5059286;28;67505;-63
2021/06/21 00:50:25;;;;;;;;;5.00;4.25;;;;;22.25;65.41;100104.22;5076518;28;53309;-63
2021/06/21 00:52:52;;;;;;;;;5.50;5.00;;;;;22.33;65.38;100112.56;5060665;28;45222;-64
2021/06/21 00:55:18;;;;;;;;;6.25;5.00;;;;;22.34;66.14;100116.19;5060554;28;45279;-63
2021/06/21 00:57:43;;;;;;;;;5.00;5.00;;;;;22.33;65.92;100120.72;5069157;28;64643;-64
2021/06/21 01:00:10;;;;;;;;;6.00;5.00;;;;;22.33;65.85;100120.72;5076786;27;45235;-63
2021/06/21 01:02:36;;;;;;;;;5.50;5.50;;;;;22.34;65.56;100121.63;5060523;28;45496;-63
2021/06/21 01:05:03;;;;;;;;;5.00;5.00;;;;;22.34;65.66;100118.91;5077482;28;45423;-63
2021/06/21 01:07:29;;;;;;;;;6.75;6.75;;;;;22.35;65.47;100120.59;5069683;27;46115;-64
2021/06/21 01:09:54;;;;;;;;;7.25;7.25;;;;;22.34;65.69;100111.59;5059596;28;60083;-64
2021/06/21 01:12:47;;;;;;;;;6.25;5.25;;;;;22.34;65.56;100119.75;5042538;28;45450;-64
2021/06/21 01:15:18;;;;;;;;;11.00;9.00;;;;;22.34;65.38;100113.47;5068073;28;45258;-64
2021/06/21 01:18:08;;;;;;;;;9.75;8.50;;;;;22.34;65.71;100111.59;5065170;28;45464;-63
2021/06/21 01:21:08;;;;;;;;;7.00;7.00;;;;;22.35;65.86;100105.16;5080478;27;45381;-63
2021/06/21 01:24:11;;;;;;;;;7.75;7.00;;;;;22.35;65.98;100116.03;5069896;28;45470;-63
2021/06/21 01:26:44;;;;;;;;;10.00;10.00;;;;;22.35;66.42;100117.88;5068585;28;45448;-63
2021/06/21 01:29:40;;;;;;;;;5.75;5.75;;;;;22.34;66.03;100121.63;5078375;28;46365;-63
2021/06/21 01:32:14;;;;;;;;;10.75;9.00;;;;;22.32;66.08;100118.16;5060078;28;45361;-63
2021/06/21 01:34:51;;;;;;;;;8.50;8.50;;;;;22.31;66.38;100130.03;5058605;28;49205;-63
2021/06/21 01:37:17;;;;;;;;;10.50;10.00;;;;;22.29;66.58;100126.63;5059898;28;45405;-63
2021/06/21 01:39:42;;;;;;;;;13.25;9.50;;;;;22.30;66.36;100123.75;5041471;28;46242;-64
2021/06/21 01:42:11;;;;;;;;;10.25;10.25;;;;;22.33;66.57;100133.47;5058207;28;52884;-63
2021/06/21 01:44:46;;;;;;;;;11.25;11.25;;;;;22.35;66.27;100131.47;5042294;28;45317;-63
2021/06/21 01:47:12;;;;;;;;;12.75;12.75;;;;;22.32;66.19;100135.34;5058328;28;45345;-63
2021/06/21 01:49:41;;;;;;;;;13.25;13.00;;;;;22.34;66.07;100121.63;5054565;28;49610;-63
2021/06/21 01:52:09;;;;;;;;;15.00;13.75;;;;;22.32;66.34;100123.59;5048218;28;45636;-64
2021/06/21 01:54:34;;;;;;;;;12.50;11.50;;;;;22.30;66.07;100129.19;5080065;27;45440;-63
2021/06/21 01:57:02;;;;;;;;;12.00;10.25;;;;;22.32;66.39;100134.47;5043435;28;67510;-64
2021/06/21 01:59:28;;;;;;;;;12.25;11.00;;;;;22.26;65.50;100135.88;5059550;28;46338;-63
2021/06/21 02:01:55;;;;;;;;;8.00;8.00;;;;;22.23;65.36;100138.84;5061047;28;45341;-63
2021/06/21 02:04:20;;;;;;;;;9.00;7.00;;;;;22.21;65.53;100141.72;5073344;28;45252;-63
2021/06/21 02:06:45;;;;;;;;;7.50;7.50;;;;;22.17;65.39;100143.00;5060342;28;57035;-63
2021/06/21 02:09:11;;;;;;;;;4.00;4.00;;;;;22.11;64.79;100146.28;5044210;28;64400;-63
2021/06/21 02:11:36;;;;;;;;;6.00;4.00;;;;;22.08;64.23;100145.69;5076772;28;45148;-64
2021/06/21 02:14:03;;;;;;;;;5.50;4.25;;;;;22.02;64.31;100145.25;5063322;28;45757;-63
2021/06/21 02:16:28;;;;;;;;;3.75;3.00;;;;;22.04;64.59;100149.69;5062856;28;45286;-64
2021/06/21 02:18:54;;;;;;;;;4.00;4.00;;;;;22.02;64.43;100149.84;5071704;28;67944;-64
2021/06/21 02:21:20;;;;;;;;;4.00;2.25;;;;;21.96;64.72;100143.06;5077754;28;45447;-63
2021/06/21 02:23:46;;;;;;;;;4.00;3.00;;;;;21.99;64.65;100145.53;5072887;28;45500;-64
2021/06/21 02:26:11;;;;;;;;;4.25;3.25;;;;;21.93;64.01;100140.63;5067671;27;45272;-63
2021/06/21 02:28:37;;;;;;;;;2.50;2.00;;;;;21.97;64.28;100147.53;5064093;28;70972;-64
2021/06/21 02:31:04;;;;;;;;;2.75;2.75;;;;;21.97;64.42;100152.09;5065519;28;45329;-64
2021/06/21 02:33:30;;;;;;;;;3.50;3.50;;;;;21.95;63.72;100151.38;5061658;28;45434;-64
2021/06/21 02:35:55;;;;;;;;;3.75;3.00;;;;;21.91;63.94;100160.81;5062640;28;47236;-64
2021/06/21 02:38:20;;;;;;;;;2.00;2.00;;;;;21.88;64.21;100161.06;5062167;28;49286;-64
2021/06/21 02:40:46;;;;;;;;;3.00;3.00;;;;;21.82;64.34;100154.34;5062516;28;45314;-63
2021/06/21 02:43:12;;;;;;;;;3.00;3.00;;;;;21.74;63.52;100140.56;5062314;28;58286;-64
2021/06/21 02:45:37;;;;;;;;;2.25;2.00;;;;;21.86;63.73;100160.34;5062551;28;45444;-64
2021/06/21 02:48:03;;;;;;;;;3.00;3.00;;;;;21.83;63.52;100162.34;5061399;28;72115;-63
2021/06/21 02:50:29;;;;;;;;;2.75;2.75;;;;;21.81;64.05;100160.75;5044984;28;45239;-63
2021/06/21 02:53:20;;;;;;;;;4.50;3.00;;;;;21.79;64.02;100157.31;5062577;28;45782;-63
2021/06/21 02:56:04;;;;;;;;;1.50;1.50;;;;;21.78;63.58;100159.16;5061562;28;45409;-64
2021/06/21 02:58:44;;;;;;;;;2.00;2.00;;;;;21.79;63.64;100169.03;5075995;28;45586;-64
2021/06/21 03:01:11;;;;;;;;;2.00;2.00;;;;;21.78;63.98;100170.03;5062495;28;45248;-63
2021/06/21 03:03:42;;;;;;;;;3.00;3.00;;;;;21.78;63.95;100167.31;5067402;28;45421;-63
2021/06/21 03:06:07;;;;;;;;;2.25;2.25;;;;;21.65;63.99;100159.41;5082736;27;45302;-63
2021/06/21 03:08:33;;;;;;;;;3.25;3.25;;;;;21.65;64.09;100161.25;5043635;28;64995;-63
2021/06/21 03:10:58;;;;;;;;;5.75;3.00;;;;;21.71;63.90;100173.44;5060907;28;45350;-64
2021/06/21 03:13:24;;;;;;;;;4.00;4.00;;;;;21.68;63.72;100171.84;5043179;28;67945;-64
2021/06/21 03:15:50;;;;;;;;;1.00;1.00;;;;;21.67;63.77;100169.25;5061031;28;45408;-63
2021/06/21 03:18:15;;;;;;;;;3.75;3.75;;;;;21.66;63.67;100173.84;5068114;28;46025;-63
2021/06/21 03:20:41;;;;;;;;;4.25;3.75;;;;;21.61;64.47;100170.66;5063554;28;58514;-64
2021/06/21 03:23:06;;;;;;;;;4.25;4.25;;;;;21.51;64.38;100156.19;5045741;28;45605;-64
2021/06/21 03:25:34;;;;;;;;;3.75;3.75;;;;;21.59;63.92;100169.94;5079095;28;45456;-63
2021/06/21 03:28:11;;;;;;;;;5.00;5.00;;;;;21.58;63.78;100166.34;5074756;27;46228;-64
2021/06/21 03:30:42;;;;;;;;;4.50;4.50;;;;;21.56;64.27;100171.06;5060780;28;45452;-64
2021/06/21 03:33:07;;;;;;;;;5.00;4.00;;;;;21.57;64.25;100163.81;5061907;28;45398;-63
2021/06/21 03:35:33;;;;;;;;;3.25;2.25;;;;;21.57;64.31;100169.22;5080841;28;45509;-64
2021/06/21 03:38:10;;;;;;;;;4.00;4.00;;;;;21.54;64.30;100164.91;5064141;27;64454;-63
2021/06/21 03:40:35;;;;;;;;;5.75;5.75;;;;;21.56;64.01;100167.50;5063245;28;45389;-63
2021/06/21 03:43:00;;;;;;;;;5.00;5.00;;;;;21.54;64.37;100164.91;5076616;28;63654;-63
2021/06/21 03:45:26;;;;;;;;;4.00;4.00;;;;;21.53;64.28;100165.91;5075146;27;45569;-63
2021/06/21 03:47:51;;;;;;;;;4.00;4.00;;;;;21.51;64.17;100167.91;5060168;28;47454;-64
2021/06/21 03:50:17;;;;;;;;;5.25;5.00;;;;;21.50;64.26;100176.16;5077161;28;63029;-64
2021/06/21 03:52:42;;;;;;;;;4.50;4.50;;;;;21.46;64.11;100187.25;5060513;28;65997;-63
2021/06/21 03:55:09;;;;;;;;;8.75;6.75;;;;;21.43;64.14;100175.81;5061221;28;45559;-63
2021/06/21 03:57:41;;;;;;;;;5.25;3.50;;;;;21.40;64.55;100176.06;5061232;28;46818;-63
2021/06/21 04:00:10;;;;;;;;;4.00;4.00;;;;;21.43;64.63;100179.41;5065484;28;46876;-63
2021/06/21 04:02:35;;;;;;;;;6.50;5.25;;;;;21.42;64.75;100176.81;5069722;27;45502;-63
2021/06/21 04:05:00;;;;;;;;;4.75;4.25;;;;;21.44;64.36;100183.81;5077721;28;54869;-63
2021/06/21 04:07:26;;;;;;;;;3.75;3.75;;;;;21.44;64.20;100185.69;5068282;27;72291;-63
2021/06/21 04:09:51;;;;;;;;;4.50;4.50;;;;;21.46;64.57;100183.69;5073510;28;65753;-63
2021/06/21 04:12:16;;;;;;;;;4.75;4.75;;;;;21.46;64.57;100189.97;5060517;28;63389;-63
2021/06/21 04:14:42;;;;;;;;;5.75;5.75;;;;;21.43;64.51;100184.84;5074729;28;45394;-63
2021/06/21 04:17:07;;;;;;;;;6.00;6.00;;;;;21.44;64.44;100197.41;5060796;28;46276;-63
2021/06/21 04:19:33;;;;;;;;;6.50;6.50;;;;;21.38;64.41;100195.22;5074289;28;45432;-63
2021/06/21 04:21:58;;;;;;;;;5.25;5.25;;;;;21.42;64.33;100203.97;5080675;27;57530;-63
2021/06/21 04:24:24;;;;;;;;;5.50;5.50;;;;;21.37;64.51;100208.94;5060678;27;45564;-63
2021/06/21 04:26:49;;;;;;;;;5.75;5.75;;;;;21.36;64.40;100210.78;5060100;28;62998;-63
2021/06/21 04:29:14;;;;;;;;;4.25;4.25;;;;;21.39;64.29;100209.66;5060474;28;47464;-63
2021/06/21 04:31:40;;;;;;;;;4.00;4.00;;;;;21.34;64.25;100185.63;5071705;28;65151;-63
2021/06/21 04:34:05;;;;;;;;;7.25;7.25;;;;;21.41;64.21;100200.38;5060584;28;45484;-63
2021/06/21 04:36:31;;;;;;;;;5.25;5.25;;;;;21.42;63.72;100206.69;5060589;28;58702;-63
2021/06/21 04:38:56;;;;;;;;;8.00;6.00;;;;;21.38;63.91;100200.63;5068854;28;64446;-63
2021/06/21 04:41:21;;;;;;;;;5.25;5.00;;;;;21.39;64.04;100198.81;5077877;27;45302;-63
2021/06/21 04:43:47;;;;;;;;;4.50;4.25;;;;;21.35;63.91;100209.06;5067383;28;57896;-64
2021/06/21 04:46:14;;;;;;;;;4.00;4.00;;;;;21.32;64.41;100216.59;5066094;27;45370;-63
2021/06/21 04:48:40;;;;;;;;;4.00;4.00;;;;;21.30;64.48;100222.19;5065389;28;45368;-63
2021/06/21 04:51:05;;;;;;;;;6.75;5.00;;;;;21.28;64.47;100213.28;5080711;27;45591;-63
2021/06/21 04:53:31;;;;;;;;;7.25;6.00;;;;;21.29;64.20;100215.03;5066971;28;45333;-63
2021/06/21 04:55:58;;;;;;;;;6.50;6.50;;;;;21.30;64.66;100222.19;5067617;27;46121;-63
2021/06/21 04:58:24;;;;;;;;;6.50;6.50;;;;;21.29;64.28;100218.59;5069292;28;45461;-63
2021/06/21 05:00:49;;;;;;;;;5.25;5.25;;;;;21.31;64.24;100220.31;5076583;28;58861;-63
2021/06/21 05:03:14;;;;;;;;;5.25;5.00;;;;;21.29;64.53;100231.31;5062517;28;45251;-63
2021/06/21 05:05:40;;;;;;;;;7.25;5.00;;;;;21.30;64.49;100233.03;5077516;27;72757;-63
2021/06/21 05:08:05;;;;;;;;;6.50;6.25;;;;;21.30;64.70;100238.47;5060236;28;45298;-63
2021/06/21 05:10:31;;;;;;;;;7.00;7.00;;;;;21.23;64.60;100229.09;5060423;28;45145;-64
2021/06/21 05:12:56;;;;;;;;;6.50;6.00;;;;;21.25;64.64;100237.97;5073574;28;45210;-64
2021/06/21 05:15:21;;;;;;;;;8.25;5.50;;;;;21.24;64.29;100239.84;5059562;28;66013;-63
2021/06/21 05:17:47;;;;;;;;;5.25;5.25;;;;;21.25;64.68;100240.69;5059741;28;45458;-63
2021/06/21 05:20:13;;;;;;;;;6.00;6.00;;;;;21.25;64.67;100238.84;5073012;28;45263;-63
2021/06/21 05:22:38;;;;;;;;;7.25;6.50;;;;;21.26;64.25;100237.00;5068633;27;45245;-63
2021/06/21 05:25:04;;;;;;;;;6.00;5.50;;;;;21.23;64.20;100242.69;5067742;28;46897;-63
2021/06/21 05:27:30;;;;;;;;;6.75;5.25;;;;;21.23;64.51;100242.69;5064145;27;45556;-63
2021/06/21 05:29:56;;;;;;;;;8.75;7.25;;;;;21.22;64.67;100230.13;5059969;28;45338;-63
2021/06/21 05:32:22;;;;;;;;;7.25;6.00;;;;;21.20;64.78;100235.69;5066375;28;45813;-62
2021/06/21 05:34:47;;;;;;;;;6.00;6.00;;;;;21.19;65.02;100235.81;5060432;28;51305;-63
2021/06/21 05:37:12;;;;;;;;;8.75;7.75;;;;;21.19;64.74;100239.38;5057340;28;45370;-64
2021/06/21 05:39:38;;;;;;;;;6.25;6.00;;;;;21.21;64.32;100247.38;5058447;28;64088;-63
2021/06/21 05:42:04;;;;;;;;;6.25;6.25;;;;;21.23;64.39;100254.41;5059216;28;45579;-63
2021/06/21 05:44:29;;;;;;;;;7.00;7.00;;;;;21.24;64.79;100255.28;5059737;28;46720;-64
2021/06/21 05:46:55;;;;;;;;;8.25;8.25;;;;;21.25;64.33;100252.44;5057587;28;67060;-64
2021/06/21 05:49:20;;;;;;;;;6.50;6.50;;;;;21.24;64.35;100249.84;5068745;28;45643;-64
2021/06/21 05:51:45;;;;;;;;;5.75;5.75;;;;;21.18;64.06;100237.63;5059888;27;45227;-64
2021/06/21 05:54:11;;;;;;;;;5.00;5.00;;;;;21.19;63.83;100246.66;5059378;28;45318;-64
2021/06/21 05:56:36;;;;;;;;;8.00;6.75;;;;;21.24;64.46;100269.69;5058906;28;67326;-64
2021/06/21 05:59:02;;;;;;;;;7.25;6.00;;;;;21.26;64.27;100269.56;5069260;28;66575;-65
2021/06/21 06:01:28;;;;;;;;;7.50;7.50;;;;;21.25;64.35;100266.00;5079870;27;45419;-64
2021/06/21 06:03:53;;;;;;;;;6.00;5.00;;;;;21.17;63.98;100264.94;5069308;28;45980;-64
2021/06/21 06:06:18;;;;;;;;;6.50;6.50;;;;;21.20;64.55;100273.69;5066792;27;45405;-64
2021/06/21 06:08:44;;;;;;;;;9.75;8.00;;;;;21.25;64.13;100285.00;5059419;28;45814;-64
2021/06/21 06:11:09;;;;;;;;;5.25;5.00;;;;;21.25;63.94;100290.44;5058870;28;64395;-65
2021/06/21 06:13:35;;;;;;;;;6.75;5.00;;;;;21.25;64.35;100293.16;5058722;28;61880;-65
2021/06/21 06:16:01;;;;;;;;;6.25;6.25;;;;;21.20;64.07;100283.66;5068822;28;45408;-65
2021/06/21 06:18:26;;;;;;;;;6.50;6.25;;;;;21.28;63.66;100292.00;5076160;28;45374;-64
2021/06/21 06:20:52;;;;;;;;;6.00;6.00;;;;;21.28;64.05;100294.72;5079737;27;45243;-64
2021/06/21 06:23:17;;;;;;;;;5.00;5.00;;;;;21.30;64.14;100306.34;5059054;27;46091;-63
2021/06/21 06:25:43;;;;;;;;;5.00;5.00;;;;;21.30;64.00;100309.06;5065745;28;45264;-64
2021/06/21 06:28:08;;;;;;;;;6.50;6.00;;;;;21.28;63.48;100311.88;5065472;27;47444;-64
2021/06/21 06:30:35;;;;;;;;;7.00;5.75;;;;;21.25;63.65;100309.44;5067244;27;45750;-64
2021/06/21 06:33:00;;;;;;;;;6.00;6.00;;;;;21.15;63.75;100291.31;5058940;28;46999;-64
2021/06/21 06:35:26;;;;;;;;;3.75;3.75;;;;;21.25;63.35;100295.84;5065170;28;50329;-64
2021/06/21 06:37:52;;;;;;;;;7.00;6.00;;;;;21.27;63.68;100287.59;5064887;28;45373;-62
2021/06/21 06:40:17;;;;;;;;;6.00;6.00;;;;;21.30;63.53;100287.34;5073589;28;62111;-62
2021/06/21 06:42:43;;;;;;;;;5.50;5.50;;;;;21.32;62.80;100282.63;5057918;28;46229;-62
2021/06/21 06:45:09;;;;;;;;;5.50;5.50;;;;;21.32;63.07;100279.03;5058382;28;45358;-62
2021/06/21 06:47:34;;;;;;;;;6.25;6.00;;;;;21.31;63.18;100269.19;5061226;28;45405;-62
2021/06/21 06:50:00;;;;;;;;;6.00;6.00;;;;;21.36;62.70;100275.94;5078241;28;45650;-62
2021/06/21 06:52:25;;;;;;;;;5.00;5.00;;;;;21.38;62.91;100276.66;5074325;27;45377;-62
2021/06/21 06:57:35;;;;;;;;;6.00;6.00;;;;;21.40;62.46;100279.25;5072497;27;45647;-62
2021/06/21 07:00:00;;;;;;;;;6.50;4.75;;;;;21.40;62.76;100285.56;5087292;27;45745;-62
2021/06/21 07:02:26;;;;;;;;;6.00;6.00;;;;;21.34;62.66;100272.50;5062277;28;65393;-63
2021/06/21 07:04:51;;;;;;;;;5.50;5.00;;;;;21.42;62.93;100282.72;5067299;27;45386;-63
2021/06/21 07:07:18;;;;;;;;;5.25;5.25;;;;;21.45;62.86;100283.31;5058652;28;68088;-62
2021/06/21 07:09:43;;;;;;;;;5.00;5.00;;;;;21.49;62.34;100285.78;5059681;28;45595;-62
2021/06/21 07:12:09;;;;;;;;;4.00;4.00;;;;;21.54;62.51;100289.81;5060028;28;69631;-62
2021/06/21 07:14:34;;;;;;;;;5.25;5.25;;;;;21.57;62.28;100291.44;5067094;28;45465;-62
2021/06/21 07:17:00;;;;;;;;;6.00;6.00;;;;;21.52;61.99;100282.78;5060391;28;48715;-64
2021/06/21 07:19:25;;;;;;;;;6.50;6.00;;;;;21.62;62.67;100298.19;5076294;27;45631;-63
2021/06/21 07:21:51;;;;;;;;;5.00;5.00;;;;;21.67;62.41;100296.91;5088492;27;46746;-66
2021/06/21 07:24:16;;;;;;;;;4.50;4.50;;;;;21.67;61.80;100295.06;5068714;27;45481;-74
2021/06/21 07:26:42;;;;;;;;;7.00;5.25;;;;;21.75;61.40;100305.25;5076480;28;45363;-74
2021/06/21 07:29:08;;;;;;;;;4.75;4.75;;;;;21.79;61.14;100315.75;5061872;28;45766;-74
2021/06/21 07:31:33;;;;;;;;;3.25;3.25;;;;;21.84;61.05;100318.91;5060530;28;46386;-74
2021/06/21 07:33:59;;;;;;;;;3.50;3.50;;;;;21.88;61.76;100315.94;5061035;28;45390;-74
2021/06/21 07:36:25;;;;;;;;;5.00;5.00;;;;;21.88;61.46;100318.66;5065592;27;45387;-74
2021/06/21 07:38:50;;;;;;;;;4.25;3.25;;;;;21.91;60.79;100319.25;5069093;28;45304;-74
2021/06/21 07:41:16;;;;;;;;;4.75;4.00;;;;;21.96;60.97;100322.41;5072853;27;74942;-74
2021/06/21 07:43:42;;;;;;;;;4.75;4.75;;;;;21.99;59.97;100322.16;5060966;28;45433;-74
2021/06/21 07:46:07;;;;;;;;;5.00;5.00;;;;;21.99;59.89;100316.72;5061517;28;45413;-74
2021/06/21 07:48:35;;;;;;;;;7.00;6.00;;;;;22.06;60.42;100329.78;5064931;28;45420;-75
2021/06/21 07:51:02;;;;;;;;;5.25;5.00;;;;;22.09;60.43;100333.09;5072015;28;45444;-69
2021/06/21 07:53:28;;;;;;;;;4.50;4.50;;;;;22.12;59.80;100337.38;5059594;28;45256;-70
2021/06/21 07:55:53;;;;;;;;;4.75;4.75;;;;;22.11;60.07;100333.81;5059731;28;45269;-82
2021/06/21 07:58:19;;;;;;;;;4.00;4.00;;;;;22.13;59.78;100334.53;5059147;28;57844;-74
2021/06/21 08:00:45;;;;;;;;;3.25;3.25;;;;;22.13;59.17;100337.25;5060261;28;47045;-76
2021/06/21 08:03:11;;;;;;;;;3.00;3.00;;;;;22.15;58.93;100338.00;5043617;28;45367;-73
2021/06/21 08:05:37;;;;;;;;;2.25;2.00;;;;;22.19;58.18;100342.16;5072650;27;45776;-73
2021/06/21 08:08:03;;;;;;;;;2.50;2.50;;;;;22.23;58.28;100341.88;5060381;28;45401;-73
2021/06/21 08:10:29;;;;;;;;;4.00;2.25;;;;;22.25;57.99;100342.63;5060067;28;45457;-73
2021/06/21 08:12:54;;;;;;;;;3.00;3.00;;;;;22.27;57.74;100346.03;5059482;28;65561;-73
2021/06/21 08:15:19;;;;;;;;;4.50;4.00;;;;;22.28;58.08;100345.06;5060674;28;45758;-73
2021/06/21 08:17:45;;;;;;;;;3.00;3.00;;;;;22.34;57.90;100355.44;5060485;28;45426;-73
2021/06/21 08:20:11;;;;;;;;;2.00;2.00;;;;;22.35;57.87;100349.88;5065056;28;57583;-73
2021/06/21 08:22:37;;;;;;;;;2.50;2.50;;;;;22.36;58.10;100348.84;5041923;28;45368;-73
2021/06/21 08:25:03;;;;;;;;;4.00;3.00;;;;;22.37;57.92;100344.31;5060770;28;45845;-73
2021/06/21 08:27:29;;;;;;;;;2.75;1.00;;;;;22.42;57.50;100344.75;5060229;28;45320;-74
2021/06/21 08:29:55;;;;;;;;;3.00;2.75;;;;;22.44;57.08;100345.47;5077436;28;45493;-73
2021/06/21 08:32:20;;;;;;;;;2.00;2.00;;;;;22.51;55.96;100346.63;5062040;28;45444;-79
2021/06/21 08:34:46;;;;;;;;;3.00;2.50;;;;;22.44;55.64;100334.59;5062812;27;45752;-79
2021/06/21 08:37:11;;;;;;;;;2.75;2.00;;;;;22.53;55.84;100350.06;5055561;28;45533;-79
2021/06/21 08:39:38;;;;;;;;;2.50;2.00;;;;;22.57;55.13;100350.69;5069537;28;68461;-79
2021/06/21 08:42:05;;;;;;;;;3.25;2.00;;;;;22.58;53.86;100347.81;5079839;27;45756;-79
2021/06/21 08:44:35;;;;;;;;;1.00;1.00;;;;;22.58;54.19;100342.34;5080540;27;45341;-78
2021/06/21 08:47:01;;;;;;;;;2.00;1.00;;;;;22.61;53.44;100348.56;5079104;28;45529;-78
2021/06/21 08:49:26;;;;;;;;;1.00;1.00;;;;;22.46;53.48;100326.31;5071574;28;46075;-79
2021/06/21 08:51:52;;;;;;;;;1.00;1.00;;;;;22.49;53.66;100340.47;5041032;28;45489;-79
2021/06/21 08:54:18;;;;;;;;;0.25;0.25;;;;;22.53;52.76;100341.06;5060426;28;45371;-79
2021/06/21 08:56:43;;;;;;;;;0.25;0.25;;;;;22.62;53.06;100351.13;5051618;28;45553;-79
2021/06/21 08:59:08;;;;;;;;;1.25;1.25;;;;;22.63;52.84;100344.69;5041789;28;66767;-79
2021/06/21 09:01:37;;;;;;;;;1.00;1.00;;;;;22.67;52.04;100348.88;5059188;28;45426;-79
2021/06/21 09:04:03;;;;;;;;;1.25;1.00;;;;;22.69;51.97;100356.88;5059226;28;45205;-79
2021/06/21 09:06:34;;;;;;;;;2.00;1.00;;;;;22.66;52.00;100357.16;5042372;28;45391;-79
2021/06/21 09:08:59;;;;;;;;;2.75;1.00;;;;;22.71;51.76;100361.16;5059682;28;45304;-79
2021/06/21 09:11:50;;;;;;;;;0.50;0.50;;;;;22.72;50.95;100353.88;5057938;28;68396;-78
2021/06/21 09:14:24;;;;;;;;;0.00;0.00;;;;;22.72;50.98;100356.59;5060436;28;45294;-78
2021/06/21 09:16:50;;;;;;;;;0.75;0.75;;;;;22.70;50.77;100342.25;5059855;28;45322;-81
2021/06/21 09:19:17;;;;;;;;;1.00;1.00;;;;;22.69;50.89;100351.44;5044519;28;48146;-78
2021/06/21 09:21:42;;;;;;;;;1.00;1.00;;;;;22.78;50.89;100352.47;5067591;27;45528;-79
2021/06/21 09:24:22;;;;;;;;;0.50;0.50;;;;;22.83;51.24;100361.06;5065248;28;60779;-77
2021/06/21 09:26:50;;;;;;;;;2.00;1.00;;;;;22.67;51.25;100337.97;5068956;27;45365;-84
2021/06/21 09:29:16;;;;;;;;;1.75;1.75;;;;;22.86;50.99;100360.81;5074971;28;45730;-84
2021/06/21 09:31:51;;;;;;;;;2.25;1.00;;;;;22.82;50.76;100354.78;5044354;28;45378;-84
2021/06/21 09:34:18;;;;;;;;;1.00;1.00;;;;;22.88;50.00;100361.53;5052604;28;45465;-85
2021/06/21 09:36:43;;;;;;;;;0.75;0.75;;;;;22.94;50.12;100378.16;5040956;28;46091;-83
2021/06/21 09:39:25;;;;;;;;;0.75;0.75;;;;;22.87;50.47;100355.22;5048746;28;63818;-83
2021/06/21 09:42:20;;;;;;;;;1.00;1.00;;;;;22.98;50.62;100377.88;5063436;27;45623;-85
2021/06/21 09:44:56;;;;;;;;;1.50;1.00;;;;;23.02;50.77;100384.75;5047986;28;45524;-84
2021/06/21 09:47:35;;;;;;;;;1.25;1.00;;;;;23.05;50.18;100387.22;5056130;28;45541;-76
2021/06/21 09:50:07;;;;;;;;;1.50;1.00;;;;;23.07;49.91;100387.94;5047701;27;47753;-75
2021/06/21 09:52:38;;;;;;;;;1.50;0.75;;;;;23.08;49.33;100393.25;5058218;28;45566;-83
2021/06/21 09:55:15;;;;;;;;;1.50;1.50;;;;;22.89;49.96;100364.09;5059488;27;45446;-83
2021/06/21 09:57:41;;;;;;;;;1.00;1.00;;;;;22.99;49.59;100368.69;5068222;28;45515;-83
2021/06/21 10:00:11;;;;;;;;;0.25;0.00;;;;;23.16;49.64;100397.16;5039524;28;68222;-84
2021/06/21 10:02:36;;;;;;;;;2.25;2.25;;;;;23.14;48.89;100397.31;5058500;28;45475;-82
2021/06/21 10:05:02;;;;;;;;;1.00;1.00;;;;;23.02;49.14;100365.72;5057550;28;45706;-83
2021/06/21 10:07:27;;;;;;;;;1.25;1.00;;;;;23.23;49.05;100401.91;5040572;28;45535;-82
2021/06/21 10:09:53;;;;;;;;;3.75;3.00;;;;;23.25;49.00;100405.34;5057323;28;47277;-82
2021/06/21 10:12:19;;;;;;;;;15.00;13.25;;;;;23.27;49.50;100411.53;5056786;28;45355;-84
2021/06/21 10:14:45;;;;;;;;;3.00;3.00;;;;;23.29;50.15;100409.50;5058872;28;45365;-82
2021/06/21 10:17:10;;;;;;;;;1.00;1.00;;;;;23.25;49.69;100408.06;5066058;28;45512;-78
2021/06/21 10:19:36;;;;;;;;;2.00;1.75;;;;;23.27;50.08;100403.34;5051113;28;70416;-76
2021/06/21 10:22:02;;;;;;;;;2.00;1.25;;;;;23.29;50.25;100403.22;5059248;28;45435;-80
2021/06/21 10:24:31;;;;;;;;;0.25;0.25;;;;;23.30;49.30;100405.81;5061275;28;45452;-79
2021/06/21 10:26:57;;;;;;;;;1.00;1.00;;;;;23.36;49.61;100407.09;5042790;27;45541;-71
2021/06/21 10:29:22;;;;;;;;;1.25;1.00;;;;;23.39;49.22;100405.94;5060830;28;45791;-81
2021/06/21 10:31:47;;;;;;;;;3.00;1.00;;;;;23.40;49.21;100400.34;5034341;28;46011;-81
2021/06/21 10:34:15;;;;;;;;;0.25;0.25;;;;;23.41;49.57;100390.34;5026516;28;62177;-81
2021/06/21 10:36:51;;;;;;;;;2.00;2.00;;;;;23.41;49.24;100404.81;5061160;28;45507;-81
2021/06/21 10:39:26;;;;;;;;;1.00;1.00;;;;;23.43;49.04;100404.66;5063823;28;45535;-81
2021/06/21 10:42:03;;;;;;;;;0.50;0.50;;;;;23.45;48.36;100408.09;5058784;28;45451;-81
2021/06/21 10:44:41;;;;;;;;;0.25;0.25;;;;;23.45;48.60;100402.66;5082581;28;45413;-81
2021/06/21 10:47:30;;;;;;;;;1.00;1.00;;;;;23.43;48.04;100399.22;5078437;27;45839;-77
2021/06/21 10:49:56;;;;;;;;;1.00;1.00;;;;;23.35;48.74;100390.88;5078860;27;45445;-77
2021/06/21 10:52:41;;;;;;;;;2.25;2.00;;;;;23.45;48.69;100398.06;5059668;28;45763;-77
2021/06/21 10:55:33;;;;;;;;;2.00;2.00;;;;;23.48;49.08;100403.22;5070358;28;45516;-78
2021/06/21 10:58:21;;;;;;;;;1.00;1.00;;;;;23.53;48.76;100405.53;5065871;27;45368;-75
2021/06/21 11:00:48;;;;;;;;;0.00;0.00;;;;;23.57;48.98;100406.09;5077162;27;46404;-76
2021/06/21 11:03:26;;;;;;;;;2.50;1.00;;;;;23.60;48.94;100401.22;5079939;27;45742;-76
2021/06/21 11:06:01;;;;;;;;;2.00;0.00;;;;;23.65;48.43;100400.81;5082197;27;45296;-76
2021/06/21 11:08:41;;;;;;;;;3.00;2.50;;;;;23.67;48.12;100401.50;5081927;27;45340;-76
2021/06/21 11:11:35;;;;;;;;;2.00;0.25;;;;;23.71;48.98;100404.84;5082060;27;45549;-75
2021/06/21 11:14:07;;;;;;;;;1.25;1.25;;;;;23.75;48.28;100403.53;5080393;28;45405;-68
2021/06/21 11:16:33;;;;;;;;;1.75;1.75;;;;;23.74;48.70;100397.25;5082163;27;45376;-75
2021/06/21 11:19:13;;;;;;;;;1.50;1.50;;;;;23.75;48.10;100398.09;5063894;28;45393;-75
2021/06/21 11:21:53;;;;;;;;;2.00;2.00;;;;;23.71;47.97;100377.59;5068104;27;46135;-75
2021/06/21 11:24:36;;;;;;;;;0.00;0.00;;;;;23.82;49.01;100397.41;5034228;28;45279;-75
2021/06/21 11:27:21;;;;;;;;;0.75;0.50;;;;;23.77;48.57;100377.00;5078202;28;45261;-75
2021/06/21 11:29:58;;;;;;;;;2.00;2.00;;;;;23.89;48.60;100394.97;5047134;28;45314;-75
2021/06/21 11:32:25;;;;;;;;;1.00;0.25;;;;;23.89;48.73;100381.34;5080139;28;46014;-75